Time;durP1;ratioP1;P1;durP2;ratioP2;P2;SDS_P1;SDS_P2;PMS_P1;PMS_P2;Temp;Humidity;BMP_temperature;BMP_pressure;BME280_temperature;BME280_humidity;BME280_pressure;Samples;Min_cycle;Max_cycle;Signal;HPM_P1;HPM_P2
2022/06/18 00:00:31;;;;;;;1.70;1.60;;;;;;;;;;2100805;28;20446;-60
2022/06/18 00:01:50;;;;;;;3.33;1.80;;;;;;;;;;2102254;28;20118;-61
2022/06/18 00:03:10;;;;;;;6.13;2.00;;;;;;;;;;2100929;28;20032;-60
2022/06/18 00:04:29;;;;;;;1.65;1.52;;;;;;;;;;2098685;28;20062;-60
2022/06/18 00:05:49;;;;;;;2.80;2.05;;;;;;;;;;2095827;28;20020;-59
2022/06/18 00:07:11;;;;;;;4.82;1.85;;;;;;;;;;2100731;28;20028;-59
2022/06/18 00:08:29;;;;;;;1.92;1.75;;;;;;;;;;2103273;28;20478;-61
2022/06/18 00:09:54;;;;;;;2.58;1.88;;;;;;;;;;2101996;28;20036;-59
2022/06/18 00:14:29;;;;;;;1.75;1.65;;;;;;;;;;2102356;28;20103;-60
2022/06/18 00:15:48;;;;;;;3.33;1.92;;;;;;;;;;2099896;28;20032;-60
2022/06/18 00:17:12;;;;;;;4.20;1.70;;;;;;;;;;2100594;28;20025;-60
2022/06/18 00:18:31;;;;;;;6.70;1.80;;;;;;;;;;2099754;28;20457;-59
2022/06/18 00:19:50;;;;;;;2.17;1.70;;;;;;;;;;2102097;28;20020;-58
2022/06/18 00:21:11;;;;;;;2.33;1.80;;;;;;;;;;2102516;28;20500;-59
2022/06/18 00:22:30;;;;;;;1.60;1.50;;;;;;;;;;2102398;28;20411;-60
2022/06/18 00:23:49;;;;;;;3.30;1.75;;;;;;;;;;2102279;28;20044;-59
2022/06/18 00:25:16;;;;;;;3.40;1.70;;;;;;;;;;2101284;28;20066;-60
2022/06/18 00:26:35;;;;;;;2.95;1.73;;;;;;;;;;2101312;28;20024;-60
2022/06/18 00:27:54;;;;;;;6.38;1.92;;;;;;;;;;2099276;28;20465;-60
2022/06/18 00:29:15;;;;;;;5.68;1.92;;;;;;;;;;2102087;28;20064;-61
2022/06/18 00:30:34;;;;;;;4.00;1.85;;;;;;;;;;2099828;28;20029;-60
2022/06/18 00:31:53;;;;;;;3.08;1.70;;;;;;;;;;2101557;28;20024;-59
2022/06/18 00:33:12;;;;;;;5.05;2.47;;;;;;;;;;2102093;28;20040;-60
2022/06/18 00:34:31;;;;;;;2.30;1.92;;;;;;;;;;2102197;28;20056;-58
2022/06/18 00:35:51;;;;;;;2.50;1.80;;;;;;;;;;2102998;28;20036;-60
2022/06/18 00:37:14;;;;;;;3.10;1.63;;;;;;;;;;2099481;28;20036;-60
2022/06/18 00:38:38;;;;;;;2.75;2.15;;;;;;;;;;2102053;28;20032;-59
2022/06/18 00:39:57;;;;;;;2.53;1.98;;;;;;;;;;2100793;28;20390;-59
2022/06/18 00:41:19;;;;;;;2.28;2.08;;;;;;;;;;2102922;28;20041;-60
2022/06/18 00:42:38;;;;;;;2.70;2.13;;;;;;;;;;2101722;28;20020;-59
2022/06/18 00:44:00;;;;;;;2.30;1.73;;;;;;;;;;2102757;28;20068;-61
2022/06/18 00:45:22;;;;;;;2.83;1.90;;;;;;;;;;2101567;28;20061;-58
2022/06/18 00:46:44;;;;;;;1.83;1.73;;;;;;;;;;2101774;28;20060;-58
2022/06/18 00:48:06;;;;;;;2.97;1.92;;;;;;;;;;2100083;28;20020;-58
2022/06/18 00:49:35;;;;;;;2.00;1.90;;;;;;;;;;2105836;28;20032;-59
2022/06/18 00:50:59;;;;;;;1.85;1.70;;;;;;;;;;2102228;28;20032;-59
2022/06/18 00:52:36;;;;;;;2.83;1.63;;;;;;;;;;2101384;28;20021;-59
2022/06/18 00:53:59;;;;;;;2.78;1.70;;;;;;;;;;2102496;28;20036;-59
2022/06/18 00:55:21;;;;;;;2.30;1.70;;;;;;;;;;2102173;28;20024;-58
2022/06/18 00:56:46;;;;;;;4.25;1.80;;;;;;;;;;2101875;28;20028;-59
2022/06/18 00:58:08;;;;;;;3.15;1.95;;;;;;;;;;2101861;28;20427;-59
2022/06/18 00:59:31;;;;;;;3.05;1.90;;;;;;;;;;2102183;28;20104;-59
2022/06/18 01:00:50;;;;;;;2.60;2.25;;;;;;;;;;2100068;28;20514;-59
2022/06/18 01:02:16;;;;;;;1.80;1.70;;;;;;;;;;2102019;28;20033;-59
2022/06/18 01:03:36;;;;;;;3.25;2.00;;;;;;;;;;2101056;28;20040;-59
2022/06/18 01:04:55;;;;;;;4.10;2.22;;;;;;;;;;2102368;28;20066;-59
2022/06/18 01:06:30;;;;;;;2.78;2.00;;;;;;;;;;2101384;28;20029;-58
2022/06/18 01:07:53;;;;;;;3.03;1.95;;;;;;;;;;2100574;28;20032;-60
2022/06/18 01:09:15;;;;;;;2.67;2.05;;;;;;;;;;2096689;28;20025;-59
2022/06/18 01:10:35;;;;;;;2.47;2.00;;;;;;;;;;2099701;28;20420;-57
2022/06/18 01:11:55;;;;;;;2.50;2.30;;;;;;;;;;2102453;28;20036;-59
2022/06/18 01:13:16;;;;;;;2.35;1.92;;;;;;;;;;2101827;28;20032;-59
2022/06/18 01:14:36;;;;;;;1.95;1.77;;;;;;;;;;2102248;28;20032;-60
2022/06/18 01:15:55;;;;;;;1.90;1.80;;;;;;;;;;2100039;28;20498;-59
2022/06/18 01:17:14;;;;;;;3.08;1.85;;;;;;;;;;2101154;28;20064;-59
2022/06/18 01:18:34;;;;;;;1.90;1.70;;;;;;;;;;2098429;28;20028;-57
2022/06/18 01:19:53;;;;;;;1.85;1.65;;;;;;;;;;2101051;28;20035;-59
2022/06/18 01:21:11;;;;;;;2.33;1.90;;;;;;;;;;2101792;28;20386;-58
2022/06/18 01:22:37;;;;;;;2.17;1.85;;;;;;;;;;2101864;28;20120;-59
2022/06/18 01:24:13;;;;;;;2.80;1.95;;;;;;;;;;2102233;28;20403;-61
2022/06/18 01:25:32;;;;;;;2.95;2.10;;;;;;;;;;2101253;28;20032;-59
2022/06/18 01:26:53;;;;;;;1.98;1.63;;;;;;;;;;2102200;28;20040;-59
2022/06/18 01:28:16;;;;;;;2.40;1.80;;;;;;;;;;2100146;28;20028;-58
2022/06/18 01:29:36;;;;;;;3.20;1.88;;;;;;;;;;2101045;28;20494;-56
2022/06/18 01:30:55;;;;;;;2.00;1.65;;;;;;;;;;2100158;28;20024;-59
2022/06/18 01:32:15;;;;;;;4.38;2.40;;;;;;;;;;2100628;28;20020;-58
2022/06/18 01:33:35;;;;;;;2.60;1.80;;;;;;;;;;2100492;28;20103;-58
2022/06/18 01:34:54;;;;;;;2.45;2.22;;;;;;;;;;2099308;28;20136;-61
2022/06/18 01:36:13;;;;;;;4.38;1.98;;;;;;;;;;2100772;28;20561;-61
2022/06/18 01:37:32;;;;;;;2.47;2.17;;;;;;;;;;2103020;28;20028;-61
2022/06/18 01:38:51;;;;;;;2.65;2.10;;;;;;;;;;2101104;28;20052;-59
2022/06/18 01:40:12;;;;;;;2.10;1.88;;;;;;;;;;2099220;28;20032;-61
2022/06/18 01:41:51;;;;;;;2.33;1.63;;;;;;;;;;2101523;28;20028;-61
2022/06/18 01:43:12;;;;;;;1.85;1.75;;;;;;;;;;2100971;28;20029;-59
2022/06/18 01:44:39;;;;;;;3.28;2.20;;;;;;;;;;2101966;28;20020;-58
2022/06/18 01:46:01;;;;;;;4.22;1.92;;;;;;;;;;2099901;28;20025;-58
2022/06/18 01:47:24;;;;;;;2.95;1.98;;;;;;;;;;2100403;28;20478;-57
2022/06/18 01:48:44;;;;;;;3.15;2.08;;;;;;;;;;2100911;28;20036;-58
2022/06/18 01:50:06;;;;;;;2.63;2.42;;;;;;;;;;2101809;28;20017;-58
2022/06/18 01:51:32;;;;;;;3.80;2.20;;;;;;;;;;2102052;28;20104;-57
2022/06/18 01:53:09;;;;;;;2.10;2.00;;;;;;;;;;2101779;28;20108;-61
2022/06/18 01:54:32;;;;;;;2.58;2.05;;;;;;;;;;2099228;28;20029;-57
2022/06/18 01:55:53;;;;;;;3.15;2.00;;;;;;;;;;2101408;28;20037;-59
2022/06/18 01:57:23;;;;;;;2.47;2.28;;;;;;;;;;2101652;28;20135;-61
2022/06/18 01:58:45;;;;;;;2.40;2.20;;;;;;;;;;2100568;28;20037;-59
2022/06/18 02:00:12;;;;;;;2.35;1.90;;;;;;;;;;2100990;28;20449;-57
2022/06/18 02:01:33;;;;;;;2.45;2.20;;;;;;;;;;2100678;28;20036;-60
2022/06/18 02:02:53;;;;;;;2.05;1.80;;;;;;;;;;2100419;28;20024;-59
2022/06/18 02:04:13;;;;;;;4.68;2.00;;;;;;;;;;2099816;28;20052;-58
2022/06/18 02:05:32;;;;;;;2.47;2.28;;;;;;;;;;2098913;28;20020;-60
2022/06/18 02:06:52;;;;;;;1.77;1.67;;;;;;;;;;2101261;28;20024;-58
2022/06/18 02:08:13;;;;;;;3.50;1.90;;;;;;;;;;2100764;28;20028;-60
2022/06/18 02:09:50;;;;;;;2.40;2.20;;;;;;;;;;2101182;28;20032;-59
2022/06/18 02:11:11;;;;;;;3.63;2.00;;;;;;;;;;2099890;28;20032;-59
2022/06/18 02:12:32;;;;;;;5.18;2.28;;;;;;;;;;2101030;28;20521;-59
2022/06/18 02:14:03;;;;;;;3.20;2.47;;;;;;;;;;2101195;28;20107;-59
2022/06/18 02:15:26;;;;;;;4.15;2.42;;;;;;;;;;2098949;28;20067;-59
2022/06/18 02:16:45;;;;;;;2.60;2.40;;;;;;;;;;2101226;28;20374;-60
2022/06/18 02:18:06;;;;;;;2.85;2.28;;;;;;;;;;2101022;28;20107;-58
2022/06/18 02:19:25;;;;;;;2.00;1.90;;;;;;;;;;2100624;28;20024;-59
2022/06/18 02:20:46;;;;;;;2.22;2.10;;;;;;;;;;2101162;28;20466;-58
2022/06/18 02:22:07;;;;;;;4.55;2.40;;;;;;;;;;2101756;28;20037;-58
2022/06/18 02:23:25;;;;;;;2.10;1.77;;;;;;;;;;2101748;28;20521;-59
2022/06/18 02:24:44;;;;;;;2.17;1.90;;;;;;;;;;2101092;28;20035;-59
2022/06/18 02:26:06;;;;;;;2.92;2.25;;;;;;;;;;2100482;28;20040;-60
2022/06/18 02:27:25;;;;;;;2.42;2.05;;;;;;;;;;2101597;28;20036;-59
2022/06/18 02:28:44;;;;;;;1.75;1.65;;;;;;;;;;2100213;28;20107;-56
2022/06/18 02:30:04;;;;;;;2.38;2.17;;;;;;;;;;2099622;28;20028;-57
2022/06/18 02:31:25;;;;;;;2.75;2.17;;;;;;;;;;2099581;28;20029;-59
2022/06/18 02:33:04;;;;;;;3.13;2.05;;;;;;;;;;2101189;28;20032;-60
2022/06/18 02:34:26;;;;;;;1.75;1.60;;;;;;;;;;2100269;28;20028;-58
2022/06/18 02:35:45;;;;;;;3.33;1.70;;;;;;;;;;2100341;28;20483;-60
2022/06/18 02:37:18;;;;;;;2.10;1.90;;;;;;;;;;2100475;28;20088;-60
2022/06/18 02:38:37;;;;;;;3.42;2.35;;;;;;;;;;2101069;28;20100;-60
2022/06/18 02:39:58;;;;;;;2.13;1.83;;;;;;;;;;2101064;28;20032;-59
2022/06/18 02:41:17;;;;;;;2.20;2.00;;;;;;;;;;2101072;28;20060;-59
2022/06/18 02:42:36;;;;;;;2.55;1.75;;;;;;;;;;2101187;28;20025;-58
2022/06/18 02:43:55;;;;;;;2.42;2.22;;;;;;;;;;2099829;28;20050;-59
2022/06/18 02:45:14;;;;;;;1.58;1.48;;;;;;;;;;2100527;28;20036;-60
2022/06/18 02:46:33;;;;;;;3.20;1.83;;;;;;;;;;2099345;28;20028;-58
2022/06/18 02:47:53;;;;;;;2.95;2.63;;;;;;;;;;2101357;28;20024;-59
2022/06/18 02:49:13;;;;;;;1.70;1.60;;;;;;;;;;2100735;28;20031;-59
2022/06/18 02:50:33;;;;;;;1.75;1.60;;;;;;;;;;2101365;28;20040;-59
2022/06/18 02:51:52;;;;;;;2.95;2.00;;;;;;;;;;2099954;28;20151;-59
2022/06/18 02:53:12;;;;;;;2.30;2.10;;;;;;;;;;2101151;28;20032;-59
2022/06/18 02:54:31;;;;;;;1.80;1.70;;;;;;;;;;2100976;28;20032;-59
2022/06/18 02:55:52;;;;;;;1.73;1.63;;;;;;;;;;2097641;28;20459;-58
2022/06/18 02:57:15;;;;;;;2.10;1.90;;;;;;;;;;2100992;28;20024;-59
2022/06/18 02:58:35;;;;;;;2.30;2.10;;;;;;;;;;2101366;28;20020;-59
2022/06/18 02:59:54;;;;;;;2.72;1.60;;;;;;;;;;2100732;28;20064;-59
2022/06/18 03:01:17;;;;;;;1.60;1.50;;;;;;;;;;2099065;28;20040;-58
2022/06/18 03:02:36;;;;;;;2.20;2.10;;;;;;;;;;2100256;28;20032;-59
2022/06/18 03:03:57;;;;;;;2.10;2.00;;;;;;;;;;2100680;28;20478;-58
2022/06/18 03:05:18;;;;;;;4.55;2.10;;;;;;;;;;2099168;28;20037;-59
2022/06/18 03:06:37;;;;;;;1.90;1.80;;;;;;;;;;2099892;28;20035;-60
2022/06/18 03:07:56;;;;;;;1.77;1.67;;;;;;;;;;2101014;28;20033;-59
2022/06/18 03:09:15;;;;;;;2.80;1.85;;;;;;;;;;2100550;28;20036;-60
2022/06/18 03:12:12;;;;;;;1.80;1.70;;;;;;;;;;2101371;28;20029;-58
2022/06/18 03:13:31;;;;;;;2.15;2.05;;;;;;;;;;2101504;28;20482;-60
2022/06/18 03:14:50;;;;;;;2.50;2.03;;;;;;;;;;2100156;28;20028;-59
2022/06/18 03:16:11;;;;;;;2.28;2.08;;;;;;;;;;2098639;28;20099;-59
2022/06/18 03:17:30;;;;;;;1.80;1.70;;;;;;;;;;2100861;28;20028;-58
2022/06/18 03:18:50;;;;;;;2.03;1.83;;;;;;;;;;2101168;28;20386;-59
2022/06/18 03:20:13;;;;;;;1.88;1.77;;;;;;;;;;2099992;28;20040;-59
2022/06/18 03:21:35;;;;;;;1.75;1.65;;;;;;;;;;2101007;28;20028;-59
2022/06/18 03:22:54;;;;;;;1.80;1.70;;;;;;;;;;2101248;28;20028;-59
2022/06/18 03:24:13;;;;;;;1.98;1.88;;;;;;;;;;2100589;28;20123;-59
2022/06/18 03:25:32;;;;;;;1.83;1.73;;;;;;;;;;2099839;28;20024;-59
2022/06/18 03:26:51;;;;;;;1.92;1.77;;;;;;;;;;2100549;28;20036;-59
2022/06/18 03:28:14;;;;;;;3.03;2.00;;;;;;;;;;2100193;28;20789;-60
2022/06/18 03:29:33;;;;;;;2.00;1.90;;;;;;;;;;2101329;28;20024;-60
2022/06/18 03:30:52;;;;;;;2.42;2.22;;;;;;;;;;2101975;28;20390;-58
2022/06/18 03:32:11;;;;;;;2.20;2.10;;;;;;;;;;2103916;28;20458;-60
2022/06/18 03:33:31;;;;;;;2.10;2.00;;;;;;;;;;2103496;28;20064;-59
2022/06/18 03:34:50;;;;;;;2.00;1.90;;;;;;;;;;2103010;28;20107;-59
2022/06/18 03:36:10;;;;;;;3.60;1.95;;;;;;;;;;2102460;28;20021;-58
2022/06/18 03:37:29;;;;;;;3.55;2.40;;;;;;;;;;2103255;28;20028;-59
2022/06/18 03:38:48;;;;;;;1.90;1.80;;;;;;;;;;2103607;28;20024;-60
2022/06/18 03:40:11;;;;;;;4.25;2.30;;;;;;;;;;2100166;28;20424;-60
2022/06/18 03:41:30;;;;;;;2.03;1.92;;;;;;;;;;2101114;28;20029;-59
2022/06/18 03:42:49;;;;;;;1.80;1.70;;;;;;;;;;2102427;28;20142;-59
2022/06/18 03:44:08;;;;;;;1.90;1.80;;;;;;;;;;2103615;28;20394;-60
2022/06/18 03:45:28;;;;;;;2.17;1.80;;;;;;;;;;2102571;28;20399;-59
2022/06/18 03:46:47;;;;;;;2.53;2.33;;;;;;;;;;2101656;28;20119;-59
2022/06/18 03:48:06;;;;;;;2.40;2.20;;;;;;;;;;2103306;28;20016;-59
2022/06/18 03:49:29;;;;;;;1.52;1.52;;;;;;;;;;2103533;28;20032;-59
2022/06/18 03:50:48;;;;;;;2.97;2.75;;;;;;;;;;2102622;28;20024;-60
2022/06/18 03:52:08;;;;;;;2.20;2.10;;;;;;;;;;2103763;28;20100;-60
2022/06/18 03:53:27;;;;;;;2.05;1.95;;;;;;;;;;2103161;28;20028;-59
2022/06/18 03:54:45;;;;;;;2.20;2.10;;;;;;;;;;2102955;28;20497;-60
2022/06/18 03:56:04;;;;;;;2.13;2.03;;;;;;;;;;2103072;28;20056;-60
2022/06/18 03:57:26;;;;;;;2.60;2.40;;;;;;;;;;2102959;28;20016;-59
2022/06/18 03:58:45;;;;;;;2.20;2.10;;;;;;;;;;2103660;28;20055;-60
2022/06/18 04:00:06;;;;;;;3.05;1.98;;;;;;;;;;2102132;28;20037;-59
2022/06/18 04:01:27;;;;;;;2.50;2.30;;;;;;;;;;2103103;28;20546;-60
2022/06/18 04:02:47;;;;;;;2.70;2.40;;;;;;;;;;2100969;28;20139;-58
2022/06/18 04:04:10;;;;;;;1.90;1.80;;;;;;;;;;2101819;28;20020;-60
2022/06/18 04:05:30;;;;;;;2.10;2.00;;;;;;;;;;2103037;28;20028;-59
2022/06/18 04:06:50;;;;;;;2.10;2.00;;;;;;;;;;2102782;28;20115;-60
2022/06/18 04:08:14;;;;;;;1.92;1.83;;;;;;;;;;2102988;28;20021;-59
2022/06/18 04:09:32;;;;;;;1.67;1.58;;;;;;;;;;2102546;28;20406;-60
2022/06/18 04:10:51;;;;;;;2.78;2.03;;;;;;;;;;2101211;28;20028;-59
2022/06/18 04:12:10;;;;;;;1.90;1.80;;;;;;;;;;2103690;28;20032;-59
2022/06/18 04:13:29;;;;;;;2.10;2.00;;;;;;;;;;2103389;28;20389;-61
2022/06/18 04:14:48;;;;;;;2.00;1.90;;;;;;;;;;2102864;28;20389;-58
2022/06/18 04:16:07;;;;;;;1.92;1.83;;;;;;;;;;2099952;28;20510;-60
2022/06/18 04:17:26;;;;;;;2.20;2.10;;;;;;;;;;2102865;28;20016;-59
2022/06/18 04:18:45;;;;;;;2.28;2.17;;;;;;;;;;2103742;28;20024;-60
2022/06/18 04:20:04;;;;;;;2.58;2.20;;;;;;;;;;2103795;28;20024;-60
2022/06/18 04:21:23;;;;;;;2.85;2.65;;;;;;;;;;2103111;28;20041;-59
2022/06/18 04:22:42;;;;;;;2.28;1.92;;;;;;;;;;2103387;28;20033;-60
2022/06/18 04:24:01;;;;;;;2.03;1.92;;;;;;;;;;2103286;28;20032;-60
2022/06/18 04:25:21;;;;;;;2.63;2.53;;;;;;;;;;2103291;28;20032;-60
2022/06/18 04:26:40;;;;;;;2.72;2.63;;;;;;;;;;2103109;28;20029;-60
2022/06/18 04:27:59;;;;;;;2.75;2.55;;;;;;;;;;2102743;28;20024;-60
2022/06/18 04:29:18;;;;;;;3.25;2.80;;;;;;;;;;2103857;28;20028;-61
2022/06/18 04:30:37;;;;;;;2.42;2.28;;;;;;;;;;2101752;28;20021;-60
2022/06/18 04:31:56;;;;;;;2.67;2.58;;;;;;;;;;2100605;28;20029;-59
2022/06/18 04:33:15;;;;;;;3.40;3.10;;;;;;;;;;2103519;28;20023;-59
2022/06/18 04:34:34;;;;;;;2.45;2.35;;;;;;;;;;2103371;28;20032;-59
2022/06/18 04:35:54;;;;;;;3.42;3.08;;;;;;;;;;2104018;28;20028;-60
2022/06/18 04:37:13;;;;;;;2.65;2.55;;;;;;;;;;2100212;28;20029;-60
2022/06/18 04:38:32;;;;;;;2.92;2.60;;;;;;;;;;2102950;28;20031;-60
2022/06/18 04:39:50;;;;;;;3.28;3.10;;;;;;;;;;2102369;28;20028;-60
2022/06/18 04:41:10;;;;;;;3.17;2.97;;;;;;;;;;2101207;28;20028;-60
2022/06/18 04:42:29;;;;;;;3.15;2.92;;;;;;;;;;2102042;28;20024;-60
2022/06/18 04:43:47;;;;;;;3.63;3.42;;;;;;;;;;2099479;28;20471;-59
2022/06/18 04:45:07;;;;;;;2.97;2.83;;;;;;;;;;2100550;28;20040;-59
2022/06/18 04:46:25;;;;;;;4.20;3.28;;;;;;;;;;2100751;28;20055;-60
2022/06/18 04:47:45;;;;;;;3.47;3.28;;;;;;;;;;2101021;28;20029;-59
2022/06/18 04:49:04;;;;;;;2.80;2.70;;;;;;;;;;2101339;28;20036;-60
2022/06/18 04:50:25;;;;;;;3.47;3.28;;;;;;;;;;2100212;28;20110;-59
2022/06/18 04:51:44;;;;;;;3.60;3.30;;;;;;;;;;2100210;28;20056;-60
2022/06/18 04:53:04;;;;;;;3.78;3.58;;;;;;;;;;2103376;28;20020;-58
2022/06/18 04:54:23;;;;;;;3.78;3.58;;;;;;;;;;2102064;28;20020;-59
2022/06/18 04:55:42;;;;;;;3.63;3.42;;;;;;;;;;2101174;28;20029;-60
2022/06/18 04:57:00;;;;;;;3.30;3.10;;;;;;;;;;2100923;28;20032;-61
2022/06/18 04:58:19;;;;;;;3.35;3.15;;;;;;;;;;2100373;28;20024;-58
2022/06/18 04:59:41;;;;;;;3.45;3.25;;;;;;;;;;2100716;28;20039;-61
2022/06/18 05:01:00;;;;;;;3.87;3.60;;;;;;;;;;2098599;28;20288;-61
2022/06/18 05:02:22;;;;;;;3.75;3.45;;;;;;;;;;2101602;28;20321;-59
2022/06/18 05:03:41;;;;;;;3.90;3.70;;;;;;;;;;2100983;28;20078;-58
2022/06/18 05:05:01;;;;;;;3.88;3.67;;;;;;;;;;2102369;28;20032;-61
2022/06/18 05:06:20;;;;;;;5.10;4.78;;;;;;;;;;2100909;28;20478;-59
2022/06/18 05:07:38;;;;;;;4.40;4.20;;;;;;;;;;2101185;28;20119;-61
2022/06/18 05:08:57;;;;;;;4.53;4.22;;;;;;;;;;2098395;28;20024;-61
2022/06/18 05:10:16;;;;;;;5.57;5.15;;;;;;;;;;2101026;28;20485;-61
2022/06/18 05:11:35;;;;;;;5.13;3.92;;;;;;;;;;2100254;28;20031;-61
2022/06/18 05:12:54;;;;;;;4.80;4.50;;;;;;;;;;2101700;28;20028;-61
2022/06/18 05:14:16;;;;;;;4.53;4.22;;;;;;;;;;2100860;28;20024;-60
2022/06/18 05:15:35;;;;;;;4.75;4.35;;;;;;;;;;2099819;28;20024;-60
2022/06/18 05:16:54;;;;;;;6.03;4.63;;;;;;;;;;2099600;28;20036;-60
2022/06/18 05:18:15;;;;;;;4.93;4.05;;;;;;;;;;2101042;28;20527;-61
2022/06/18 05:19:36;;;;;;;4.13;3.92;;;;;;;;;;2101583;28;20024;-59
2022/06/18 05:20:55;;;;;;;5.38;4.90;;;;;;;;;;2100434;28;20037;-60
2022/06/18 05:22:14;;;;;;;5.90;5.50;;;;;;;;;;2100612;28;20048;-60
2022/06/18 05:23:33;;;;;;;5.15;4.85;;;;;;;;;;2099834;28;20049;-61
2022/06/18 05:24:52;;;;;;;5.10;4.80;;;;;;;;;;2101146;28;20064;-61
2022/06/18 05:26:13;;;;;;;5.68;5.22;;;;;;;;;;2100761;28;20028;-60
2022/06/18 05:27:33;;;;;;;4.55;4.15;;;;;;;;;;2100188;28;20031;-61
2022/06/18 05:28:52;;;;;;;4.75;4.35;;;;;;;;;;2100877;28;20493;-61
2022/06/18 05:30:17;;;;;;;5.50;5.00;;;;;;;;;;2102284;28;20120;-61
2022/06/18 05:31:36;;;;;;;5.20;4.90;;;;;;;;;;2101048;28;20013;-59
2022/06/18 05:32:55;;;;;;;5.95;5.55;;;;;;;;;;2101773;28;20043;-61
2022/06/18 05:34:14;;;;;;;5.97;5.50;;;;;;;;;;2101899;28;20032;-58
2022/06/18 05:35:34;;;;;;;5.32;4.82;;;;;;;;;;2101678;28;20104;-60
2022/06/18 05:36:53;;;;;;;5.35;4.95;;;;;;;;;;2100860;28;20040;-60
2022/06/18 05:38:14;;;;;;;6.40;5.90;;;;;;;;;;2101328;28;20467;-60
2022/06/18 05:39:33;;;;;;;6.00;5.47;;;;;;;;;;2102136;28;20130;-60
2022/06/18 05:40:52;;;;;;;5.65;5.25;;;;;;;;;;2100645;28;20989;-61
2022/06/18 05:42:11;;;;;;;5.22;4.82;;;;;;;;;;2101040;28;20041;-58
2022/06/18 05:43:30;;;;;;;5.53;5.15;;;;;;;;;;2100530;28;20489;-59
2022/06/18 05:44:49;;;;;;;5.90;5.47;;;;;;;;;;2100618;28;20036;-58
2022/06/18 05:46:10;;;;;;;6.20;5.80;;;;;;;;;;2099738;28;20142;-57
2022/06/18 05:47:33;;;;;;;5.28;4.97;;;;;;;;;;2100614;28;20036;-58
2022/06/18 05:48:53;;;;;;;5.15;4.85;;;;;;;;;;2100169;28;20131;-56
2022/06/18 05:50:13;;;;;;;6.97;6.55;;;;;;;;;;2101132;28;20474;-58
2022/06/18 05:51:32;;;;;;;5.72;5.10;;;;;;;;;;2101921;28;20103;-59
2022/06/18 05:52:51;;;;;;;5.50;5.18;;;;;;;;;;2100430;28;20498;-61
2022/06/18 05:54:10;;;;;;;7.28;6.53;;;;;;;;;;2101349;28;20506;-58
2022/06/18 05:55:29;;;;;;;6.43;5.93;;;;;;;;;;2101018;28;20028;-59
2022/06/18 05:56:50;;;;;;;6.32;5.88;;;;;;;;;;2100443;28;20433;-58
2022/06/18 05:58:09;;;;;;;7.60;6.90;;;;;;;;;;2100308;28;20494;-59
2022/06/18 05:59:28;;;;;;;6.82;6.38;;;;;;;;;;2102339;28;20032;-58
2022/06/18 06:00:47;;;;;;;9.10;5.82;;;;;;;;;;2100902;28;20024;-60
2022/06/18 06:02:06;;;;;;;5.30;5.00;;;;;;;;;;2099551;28;20024;-59
2022/06/18 06:03:25;;;;;;;6.60;5.90;;;;;;;;;;2102106;28;20074;-59
2022/06/18 06:04:44;;;;;;;6.75;6.15;;;;;;;;;;2101541;28;20024;-59
2022/06/18 06:06:03;;;;;;;7.55;6.82;;;;;;;;;;2101705;28;20112;-59
2022/06/18 06:07:23;;;;;;;5.63;5.32;;;;;;;;;;2100510;28;20033;-60
2022/06/18 06:08:42;;;;;;;7.78;7.15;;;;;;;;;;2099405;28;20491;-60
2022/06/18 06:11:56;;;;;;;6.10;5.60;;;;;;;;;;2098762;28;20020;-60
2022/06/18 06:13:15;;;;;;;7.50;7.05;;;;;;;;;;2097521;28;20028;-59
2022/06/18 06:14:34;;;;;;;6.18;5.78;;;;;;;;;;2099491;28;20114;-58
2022/06/18 06:15:53;;;;;;;6.22;5.82;;;;;;;;;;2100191;28;20020;-60
2022/06/18 06:17:14;;;;;;;7.20;6.70;;;;;;;;;;2099404;28;20020;-60
2022/06/18 06:18:33;;;;;;;6.70;6.10;;;;;;;;;;2102601;28;20498;-59
2022/06/18 06:19:58;;;;;;;7.53;6.95;;;;;;;;;;2100669;28;20497;-58
2022/06/18 06:21:17;;;;;;;7.65;7.05;;;;;;;;;;2100612;28;20032;-59
2022/06/18 06:22:36;;;;;;;6.70;6.30;;;;;;;;;;2101359;28;20032;-59
2022/06/18 06:23:55;;;;;;;6.35;5.80;;;;;;;;;;2100770;28;20039;-59
2022/06/18 06:25:14;;;;;;;7.57;6.93;;;;;;;;;;2100429;28;20040;-59
2022/06/18 06:26:34;;;;;;;6.57;6.00;;;;;;;;;;2098563;28;20387;-59
2022/06/18 06:27:53;;;;;;;6.35;5.95;;;;;;;;;;2099891;28;20032;-58
2022/06/18 06:29:11;;;;;;;5.63;5.32;;;;;;;;;;2099859;28;20020;-60
2022/06/18 06:30:30;;;;;;;5.85;5.50;;;;;;;;;;2100292;28;20044;-59
2022/06/18 06:31:49;;;;;;;6.57;6.07;;;;;;;;;;2101372;28;20514;-60
2022/06/18 06:33:08;;;;;;;8.82;6.40;;;;;;;;;;2099946;28;20103;-60
2022/06/18 06:34:28;;;;;;;6.25;5.88;;;;;;;;;;2099933;28;20024;-59
2022/06/18 06:35:48;;;;;;;5.72;5.43;;;;;;;;;;2102573;28;20028;-60
2022/06/18 06:37:06;;;;;;;7.07;6.50;;;;;;;;;;2100616;28;20028;-59
2022/06/18 06:38:26;;;;;;;5.78;5.47;;;;;;;;;;2100409;28;20032;-59
2022/06/18 06:39:44;;;;;;;6.45;6.15;;;;;;;;;;2099426;28;20036;-59
2022/06/18 06:41:05;;;;;;;6.35;5.43;;;;;;;;;;2098928;28;20481;-60
2022/06/18 06:42:24;;;;;;;7.07;6.57;;;;;;;;;;2099689;28;20024;-60
2022/06/18 06:43:43;;;;;;;7.30;6.90;;;;;;;;;;2099407;28;20037;-58
2022/06/18 06:45:02;;;;;;;6.40;6.00;;;;;;;;;;2099690;28;20488;-57
2022/06/18 06:46:21;;;;;;;6.72;6.22;;;;;;;;;;2099270;28;20350;-58
2022/06/18 06:47:40;;;;;;;7.65;6.97;;;;;;;;;;2099925;28;20670;-58
2022/06/18 06:48:59;;;;;;;7.38;6.78;;;;;;;;;;2100180;28;20039;-60
2022/06/18 06:50:19;;;;;;;7.20;6.70;;;;;;;;;;2095867;28;20034;-60
2022/06/18 06:51:38;;;;;;;6.40;6.10;;;;;;;;;;2099243;28;20024;-60
2022/06/18 06:52:57;;;;;;;7.63;7.07;;;;;;;;;;2098418;28;20025;-59
2022/06/18 06:54:16;;;;;;;7.40;6.82;;;;;;;;;;2100770;28;20044;-58
2022/06/18 06:57:23;;;;;;;13.18;5.60;;;;;;;;;;2100668;28;20024;-59
2022/06/18 06:58:42;;;;;;;7.10;6.53;;;;;;;;;;2098305;28;20050;-58
2022/06/18 07:00:01;;;;;;;6.80;6.47;;;;;;;;;;2098035;28;20465;-60
2022/06/18 07:01:20;;;;;;;7.65;7.25;;;;;;;;;;2097765;28;20483;-59
2022/06/18 07:02:39;;;;;;;7.50;7.00;;;;;;;;;;2097939;28;20027;-60
2022/06/18 07:03:58;;;;;;;8.05;7.55;;;;;;;;;;2100921;28;20111;-60
2022/06/18 07:05:17;;;;;;;7.85;7.45;;;;;;;;;;2098961;28;20036;-58
2022/06/18 07:06:36;;;;;;;7.80;7.28;;;;;;;;;;2096770;28;20032;-60
2022/06/18 07:07:55;;;;;;;7.95;7.25;;;;;;;;;;2101924;28;20024;-57
2022/06/18 07:09:14;;;;;;;8.23;7.68;;;;;;;;;;2099950;28;20036;-60
2022/06/18 07:10:32;;;;;;;6.68;6.28;;;;;;;;;;2097083;28;20028;-58
2022/06/18 07:11:52;;;;;;;7.15;6.75;;;;;;;;;;2098667;28;20494;-60
2022/06/18 07:13:10;;;;;;;6.40;6.00;;;;;;;;;;2098292;28;20029;-60
2022/06/18 07:14:29;;;;;;;6.28;5.97;;;;;;;;;;2100484;28;20036;-59
2022/06/18 07:15:50;;;;;;;7.40;6.93;;;;;;;;;;2100412;28;20209;-60
2022/06/18 07:17:16;;;;;;;6.75;6.13;;;;;;;;;;2101815;28;20025;-59
2022/06/18 07:18:36;;;;;;;7.35;6.90;;;;;;;;;;2100380;28;20016;-60
2022/06/18 07:19:55;;;;;;;7.72;7.05;;;;;;;;;;2099077;28;20107;-60
2022/06/18 07:21:15;;;;;;;7.15;6.75;;;;;;;;;;2096490;28;20024;-60
2022/06/18 07:22:34;;;;;;;7.50;6.95;;;;;;;;;;2099348;28;20417;-62
2022/06/18 07:23:53;;;;;;;7.80;7.22;;;;;;;;;;2100461;28;20083;-61
2022/06/18 07:25:13;;;;;;;7.65;7.15;;;;;;;;;;2101281;28;20040;-60
2022/06/18 07:26:31;;;;;;;7.22;6.75;;;;;;;;;;2099923;28;20032;-60
2022/06/18 07:27:52;;;;;;;7.32;6.85;;;;;;;;;;2098353;28;20040;-60
2022/06/18 07:29:13;;;;;;;8.90;8.20;;;;;;;;;;2100037;28;20036;-60
2022/06/18 07:30:33;;;;;;;8.43;7.82;;;;;;;;;;2098935;28;20024;-61
2022/06/18 07:31:52;;;;;;;9.10;8.40;;;;;;;;;;2099686;28;20414;-59
2022/06/18 07:33:13;;;;;;;8.50;7.90;;;;;;;;;;2097142;28;20028;-59
2022/06/18 07:34:32;;;;;;;7.78;7.28;;;;;;;;;;2098501;28;20059;-60
2022/06/18 07:35:51;;;;;;;7.80;7.18;;;;;;;;;;2099627;28;20036;-60
2022/06/18 07:37:10;;;;;;;7.70;7.07;;;;;;;;;;2095785;28;20021;-59
2022/06/18 07:38:29;;;;;;;7.80;7.30;;;;;;;;;;2100041;28;20046;-60
2022/06/18 07:39:48;;;;;;;7.25;6.70;;;;;;;;;;2099611;28;20036;-61
2022/06/18 07:41:07;;;;;;;9.50;8.65;;;;;;;;;;2099585;28;20028;-61
2022/06/18 07:42:26;;;;;;;8.80;7.90;;;;;;;;;;2101307;28;20703;-60
2022/06/18 07:43:55;;;;;;;8.52;8.00;;;;;;;;;;2098771;28;20415;-61
2022/06/18 07:45:16;;;;;;;9.70;8.90;;;;;;;;;;2097969;28;20119;-61
2022/06/18 07:46:35;;;;;;;9.25;8.65;;;;;;;;;;2096984;28;20033;-61
2022/06/18 07:47:54;;;;;;;9.45;8.63;;;;;;;;;;2101002;28;20029;-61
2022/06/18 07:49:13;;;;;;;8.35;7.65;;;;;;;;;;2095393;28;20032;-62
2022/06/18 07:50:32;;;;;;;9.75;9.05;;;;;;;;;;2100840;28;20028;-60
2022/06/18 07:51:51;;;;;;;8.63;7.88;;;;;;;;;;2097105;28;20037;-59
2022/06/18 07:53:15;;;;;;;7.72;7.32;;;;;;;;;;2100788;28;20024;-60
2022/06/18 07:54:34;;;;;;;8.23;7.65;;;;;;;;;;2099326;28;20068;-60
2022/06/18 07:55:54;;;;;;;8.80;8.23;;;;;;;;;;2098896;28;20024;-60
2022/06/18 07:57:13;;;;;;;8.38;7.80;;;;;;;;;;2099468;28;20021;-59
2022/06/18 07:58:32;;;;;;;8.43;7.72;;;;;;;;;;2098436;28;20032;-60
2022/06/18 07:59:51;;;;;;;11.20;10.10;;;;;;;;;;2099743;28;20040;-60
2022/06/18 08:01:10;;;;;;;11.40;10.48;;;;;;;;;;2101239;28;20036;-59
2022/06/18 08:02:29;;;;;;;10.93;9.82;;;;;;;;;;2100912;28;20032;-59
2022/06/18 08:03:48;;;;;;;9.90;8.90;;;;;;;;;;2100677;28;20024;-59
2022/06/18 08:05:07;;;;;;;13.35;10.15;;;;;;;;;;2097621;28;20036;-60
2022/06/18 08:06:26;;;;;;;8.77;8.05;;;;;;;;;;2099089;28;20067;-58
2022/06/18 08:07:45;;;;;;;10.57;9.57;;;;;;;;;;2100487;28;20386;-60
2022/06/18 08:09:04;;;;;;;9.00;8.30;;;;;;;;;;2100891;28;20398;-60
2022/06/18 08:10:23;;;;;;;10.95;9.82;;;;;;;;;;2098120;28;20024;-58